createdAt,value
2016-12-03T00:00:37.376Z,0
2016-12-03T00:01:38.711Z,0
2016-12-03T00:02:37.395Z,0
2016-12-03T00:03:37.400Z,0
2016-12-03T00:04:37.042Z,0
2016-12-03T00:05:38.036Z,0
2016-12-03T00:06:37.736Z,0
2016-12-03T00:07:38.012Z,0
2016-12-03T00:08:37.383Z,0
2016-12-03T00:09:37.445Z,0
2016-12-03T00:10:39.585Z,0
2016-12-03T00:11:37.767Z,0
2016-12-03T00:12:38.581Z,0
2016-12-03T00:13:38.089Z,0
2016-12-03T00:14:37.523Z,0
2016-12-03T00:15:36.815Z,0
2016-12-03T00:16:36.918Z,0
2016-12-03T00:17:38.070Z,0
2016-12-03T00:18:38.565Z,0
2016-12-03T00:19:37.511Z,0
2016-12-03T00:20:36.937Z,0
2016-12-03T00:21:39.958Z,0
2016-12-03T00:22:37.483Z,0
2016-12-03T00:23:39.175Z,0
2016-12-03T00:24:37.542Z,0
2016-12-03T00:25:37.497Z,0
2016-12-03T00:26:37.303Z,0
2016-12-03T00:27:37.880Z,0
2016-12-03T00:28:37.265Z,0
2016-12-03T00:29:37.992Z,0
2016-12-03T00:30:38.182Z,0
2016-12-03T00:31:37.910Z,0
2016-12-03T00:32:40.097Z,0
2016-12-03T00:33:38.233Z,0
2016-12-03T00:34:37.627Z,0
2016-12-03T00:35:37.938Z,0
2016-12-03T00:36:37.994Z,0
2016-12-03T00:37:37.636Z,0
2016-12-03T00:38:38.317Z,0
2016-12-03T00:39:37.757Z,0
2016-12-03T00:40:38.293Z,0
2016-12-03T00:41:37.971Z,0
2016-12-03T00:42:37.698Z,0
2016-12-03T00:43:37.935Z,0
2016-12-03T00:44:37.997Z,0
2016-12-03T00:45:38.898Z,0
2016-12-03T00:46:38.018Z,0
2016-12-03T00:47:37.657Z,0
2016-12-03T00:48:38.290Z,0
2016-12-03T00:49:37.821Z,0
2016-12-03T00:50:37.706Z,0
2016-12-03T00:51:37.735Z,0
2016-12-03T00:52:38.099Z,0
2016-12-03T00:53:37.380Z,0
2016-12-03T00:54:37.442Z,0
2016-12-03T00:55:37.709Z,0
2016-12-03T00:56:37.507Z,0
2016-12-03T00:57:37.460Z,0
2016-12-03T00:58:37.525Z,0
2016-12-03T00:59:37.432Z,0
2016-12-03T01:00:37.435Z,0
2016-12-03T01:01:37.752Z,0
2016-12-03T01:02:38.124Z,0
2016-12-03T01:03:39.080Z,0
2016-12-03T01:04:37.922Z,0
2016-12-03T01:05:38.143Z,0
2016-12-03T01:06:38.149Z,0
2016-12-03T01:07:37.482Z,0
2016-12-03T01:08:37.904Z,0
2016-12-03T01:09:38.439Z,0
2016-12-03T01:10:37.811Z,0
2016-12-03T01:11:37.565Z,0
2016-12-03T01:12:38.243Z,0
2016-12-03T01:13:38.775Z,0
2016-12-03T01:14:38.246Z,0
2016-12-03T01:15:37.622Z,0
2016-12-03T01:16:38.355Z,0
2016-12-03T01:17:38.541Z,0
2016-12-03T01:18:37.869Z,0
2016-12-03T01:19:38.197Z,0
2016-12-03T01:20:37.985Z,0
2016-12-03T01:21:38.001Z,0
2016-12-03T01:22:37.637Z,0
2016-12-03T01:23:38.264Z,0
2016-12-03T01:24:37.968Z,0
2016-12-03T01:25:38.625Z,0
2016-12-03T01:26:37.925Z,0
2016-12-03T01:27:38.590Z,0
2016-12-03T01:28:38.044Z,0
2016-12-03T01:29:37.998Z,0
2016-12-03T01:30:38.630Z,0
2016-12-03T01:31:37.961Z,0
2016-12-03T01:32:39.340Z,0
2016-12-03T01:33:38.023Z,0
2016-12-03T01:34:38.346Z,0
2016-12-03T01:35:38.301Z,0
2016-12-03T01:36:39.132Z,0
2016-12-03T01:37:38.416Z,0
2016-12-03T01:38:38.818Z,0
2016-12-03T01:39:38.359Z,0
2016-12-03T01:40:38.652Z,0
2016-12-03T01:41:38.036Z,0
2016-12-03T01:42:38.355Z,0
2016-12-03T01:43:38.094Z,0
2016-12-03T01:44:37.839Z,0
2016-12-03T01:45:38.110Z,0
2016-12-03T01:46:38.087Z,0
2016-12-03T01:47:37.762Z,0
2016-12-03T01:48:37.770Z,0
2016-12-03T01:49:39.808Z,0
2016-12-03T01:50:38.466Z,0
2016-12-03T01:51:39.154Z,0
2016-12-03T01:52:38.785Z,0
2016-12-03T01:53:38.425Z,0
2016-12-03T01:54:37.811Z,0
2016-12-03T01:55:38.426Z,0
2016-12-03T01:56:37.821Z,0
2016-12-03T01:57:38.192Z,0
2016-12-03T01:58:38.564Z,0
2016-12-03T01:59:37.922Z,0
2016-12-03T02:00:38.578Z,0
2016-12-03T02:01:37.959Z,0
2016-12-03T02:02:37.865Z,0
2016-12-03T02:03:37.869Z,0
2016-12-03T02:04:38.200Z,0
2016-12-03T02:05:38.205Z,0
2016-12-03T02:06:38.571Z,0
2016-12-03T02:07:38.262Z,0
2016-12-03T02:08:38.010Z,0
2016-12-03T02:09:38.808Z,0
2016-12-03T02:10:38.281Z,0
2016-12-03T02:11:38.740Z,0
2016-12-03T02:12:38.348Z,0
2016-12-03T02:13:38.259Z,0
2016-12-03T02:14:38.264Z,0
2016-12-03T02:15:38.636Z,0
2016-12-03T02:16:38.323Z,0
2016-12-03T02:17:37.762Z,0
2016-12-03T02:18:38.657Z,0
2016-12-03T02:19:37.983Z,0
2016-12-03T02:20:38.745Z,0
2016-12-03T02:21:38.364Z,0
2016-12-03T02:22:39.151Z,0
2016-12-03T02:23:38.142Z,0
2016-12-03T02:24:38.363Z,0
2016-12-03T02:25:38.653Z,0
2016-12-03T02:26:39.004Z,0
2016-12-03T02:27:38.156Z,0
2016-12-03T02:28:38.513Z,0
2016-12-03T02:29:38.686Z,0
2016-12-03T02:30:38.067Z,0
2016-12-03T02:31:39.094Z,0
2016-12-03T02:32:38.386Z,0
2016-12-03T02:33:38.812Z,0
2016-12-03T02:34:38.140Z,0
2016-12-03T02:35:38.508Z,0
2016-12-03T02:36:38.417Z,0
2016-12-03T02:37:38.732Z,0
2016-12-03T02:38:38.843Z,0
2016-12-03T02:39:38.800Z,0
2016-12-03T02:40:39.121Z,0
2016-12-03T02:41:39.114Z,0
2016-12-03T02:42:39.848Z,0
2016-12-03T02:43:38.463Z,0
2016-12-03T02:44:39.074Z,0
2016-12-03T02:45:38.845Z,0
2016-12-03T02:46:38.228Z,0
2016-12-03T02:47:38.544Z,0
2016-12-03T02:48:38.960Z,0
2016-12-03T02:49:39.136Z,0
2016-12-03T02:50:38.984Z,0
2016-12-03T02:51:38.581Z,0
2016-12-03T02:52:38.533Z,0
2016-12-03T02:53:40.163Z,0
2016-12-03T02:54:38.233Z,0
2016-12-03T02:55:39.479Z,0
2016-12-03T02:56:37.980Z,0
2016-12-03T02:57:39.239Z,0
2016-12-03T02:58:39.299Z,0
2016-12-03T02:59:39.303Z,0
2016-12-03T03:00:38.270Z,0
2016-12-03T03:01:38.016Z,0
2016-12-03T03:02:38.648Z,0
2016-12-03T03:03:39.332Z,0
2016-12-03T03:04:40.301Z,0
2016-12-03T03:05:38.358Z,0
2016-12-03T03:06:39.914Z,0
2016-12-03T03:07:38.761Z,0
2016-12-03T03:08:38.325Z,0
2016-12-03T03:09:38.645Z,0
2016-12-03T03:10:38.707Z,0
2016-12-03T03:11:38.035Z,0
2016-12-03T03:12:38.966Z,0
2016-12-03T03:13:38.461Z,0
2016-12-03T03:14:38.735Z,0
2016-12-03T03:15:38.531Z,0
2016-12-03T03:16:38.693Z,0
2016-12-03T03:17:40.264Z,0
2016-12-03T03:18:39.074Z,0
2016-12-03T03:19:39.129Z,0
2016-12-03T03:20:38.509Z,0
2016-12-03T03:21:38.208Z,0
2016-12-03T03:22:39.056Z,0
2016-12-03T03:23:38.747Z,0
2016-12-03T03:24:39.489Z,0
2016-12-03T03:25:38.548Z,0
2016-12-03T03:26:41.111Z,0
2016-12-03T03:27:38.516Z,0
2016-12-03T03:28:40.832Z,0
2016-12-03T03:29:39.422Z,0
2016-12-03T03:30:38.896Z,0
2016-12-03T03:31:39.482Z,0
2016-12-03T03:32:38.598Z,0
2016-12-03T03:33:39.177Z,0
2016-12-03T03:34:38.196Z,0
2016-12-03T03:35:39.203Z,0
2016-12-03T03:36:38.572Z,0
2016-12-03T03:37:39.667Z,0
2016-12-03T03:38:38.900Z,0
2016-12-03T03:39:38.584Z,0
2016-12-03T03:40:39.598Z,0
2016-12-03T03:41:38.876Z,0
2016-12-03T03:42:38.977Z,0
2016-12-03T03:43:38.886Z,0
2016-12-03T03:44:39.207Z,0
2016-12-03T03:45:38.899Z,0
2016-12-03T03:46:39.227Z,0
2016-12-03T03:47:39.674Z,0
2016-12-03T03:48:40.163Z,0
2016-12-03T03:49:39.608Z,0
2016-12-03T03:50:39.396Z,0
2016-12-03T03:51:39.094Z,0
2016-12-03T03:52:38.998Z,0
2016-12-03T03:53:38.428Z,0
2016-12-03T03:54:39.015Z,0
2016-12-03T03:55:38.974Z,0
2016-12-03T03:56:39.023Z,0
2016-12-03T03:57:39.017Z,0
2016-12-03T03:58:39.617Z,0
2016-12-03T03:59:40.297Z,0
2016-12-03T04:00:39.656Z,0
2016-12-03T04:01:39.522Z,0
2016-12-03T04:02:39.357Z,0
2016-12-03T04:03:39.124Z,0
2016-12-03T04:04:39.085Z,0
2016-12-03T04:05:39.075Z,0
2016-12-03T04:06:39.408Z,0
2016-12-03T04:07:39.153Z,0
2016-12-03T04:08:39.418Z,0
2016-12-03T04:09:39.423Z,0
2016-12-03T04:10:41.435Z,0
2016-12-03T04:11:39.079Z,0
2016-12-03T04:12:39.849Z,0
2016-12-03T04:13:38.787Z,0
2016-12-03T04:14:39.466Z,0
2016-12-03T04:15:39.200Z,0
2016-12-03T04:16:39.820Z,0
2016-12-03T04:17:39.847Z,0
2016-12-03T04:18:39.179Z,0
2016-12-03T04:19:39.134Z,0
2016-12-03T04:20:39.864Z,0
2016-12-03T04:21:40.954Z,0
2016-12-03T04:22:39.572Z,0
2016-12-03T04:23:39.960Z,0
2016-12-03T04:24:39.215Z,0
2016-12-03T04:25:39.950Z,0
2016-12-03T04:26:39.543Z,0
2016-12-03T04:27:39.237Z,0
2016-12-03T04:28:38.933Z,0
2016-12-03T04:29:39.519Z,0
2016-12-03T04:30:39.525Z,0
2016-12-03T04:31:39.268Z,0
2016-12-03T04:32:41.395Z,0
2016-12-03T04:33:39.904Z,0
2016-12-03T04:34:40.247Z,0
2016-12-03T04:35:39.737Z,0
2016-12-03T04:36:39.248Z,0
2016-12-03T04:37:39.049Z,0
2016-12-03T04:38:39.441Z,0
2016-12-03T04:39:39.590Z,0
2016-12-03T04:40:39.951Z,0
2016-12-03T04:41:39.024Z,0
2016-12-03T04:42:39.921Z,0
2016-12-03T04:43:39.348Z,0
2016-12-03T04:44:39.721Z,0
2016-12-03T04:45:40.811Z,0
2016-12-03T04:46:39.327Z,0
2016-12-03T04:47:39.064Z,0
2016-12-03T04:48:39.701Z,0
2016-12-03T04:49:39.130Z,0
2016-12-03T04:50:39.091Z,0
2016-12-03T04:51:39.404Z,0
2016-12-03T04:52:39.410Z,0
2016-12-03T04:53:39.416Z,0
2016-12-03T04:54:39.579Z,0
2016-12-03T04:55:39.384Z,0
2016-12-03T04:56:39.446Z,0
2016-12-03T04:57:39.451Z,0
2016-12-03T04:58:40.031Z,0
2016-12-03T04:59:40.438Z,0
2016-12-03T05:00:39.157Z,0
2016-12-03T05:01:39.480Z,0
2016-12-03T05:02:40.058Z,0
2016-12-03T05:03:39.990Z,0
2016-12-03T05:04:39.861Z,0
2016-12-03T05:05:39.842Z,0
2016-12-03T05:06:39.779Z,0
2016-12-03T05:07:39.782Z,0
2016-12-03T05:08:39.903Z,0
2016-12-03T05:09:39.537Z,0
2016-12-03T05:10:40.266Z,0
2016-12-03T05:11:39.494Z,0
2016-12-03T05:12:39.499Z,0
2016-12-03T05:13:40.238Z,0
2016-12-03T05:14:40.324Z,0
2016-12-03T05:15:39.960Z,0
2016-12-03T05:16:40.360Z,0
2016-12-03T05:17:40.262Z,0
2016-12-03T05:18:39.907Z,0
2016-12-03T05:19:39.342Z,0
2016-12-03T05:20:39.617Z,0
2016-12-03T05:21:40.291Z,0
2016-12-03T05:22:39.884Z,0
2016-12-03T05:23:39.943Z,0
2016-12-03T05:24:39.638Z,0
2016-12-03T05:25:40.746Z,0
2016-12-03T05:26:39.435Z,0
2016-12-03T05:27:40.875Z,0
2016-12-03T05:28:39.361Z,0
2016-12-03T05:29:40.274Z,0
2016-12-03T05:30:39.678Z,0
2016-12-03T05:31:39.374Z,0
2016-12-03T05:32:39.746Z,0
2016-12-03T05:33:39.649Z,0
2016-12-03T05:34:39.975Z,0
2016-12-03T05:35:39.452Z,0
2016-12-03T05:36:40.031Z,0
2016-12-03T05:37:39.730Z,0
2016-12-03T05:38:41.455Z,0
2016-12-03T05:39:39.482Z,0
2016-12-03T05:40:40.804Z,0
2016-12-03T05:41:40.068Z,0
2016-12-03T05:42:39.814Z,0
2016-12-03T05:43:40.135Z,0
2016-12-03T05:44:39.514Z,0
2016-12-03T05:45:39.485Z,0
2016-12-03T05:46:40.054Z,0
2016-12-03T05:47:39.796Z,0
2016-12-03T05:48:39.806Z,0
2016-12-03T05:49:41.487Z,0
2016-12-03T05:50:40.180Z,0
2016-12-03T05:51:41.241Z,0
2016-12-03T05:52:40.149Z,0
2016-12-03T05:53:39.854Z,0
2016-12-03T05:54:40.098Z,0
2016-12-03T05:55:39.902Z,0
2016-12-03T05:56:39.913Z,0
2016-12-03T05:57:39.512Z,0
2016-12-03T05:58:39.713Z,0
2016-12-03T05:59:40.464Z,0
2016-12-03T06:00:41.824Z,0
2016-12-03T06:01:40.207Z,0
2016-12-03T06:02:41.504Z,0
2016-12-03T06:03:40.225Z,0
2016-12-03T06:04:39.969Z,0
2016-12-03T06:05:39.926Z,0
2016-12-03T06:06:39.886Z,0
2016-12-03T06:07:40.507Z,0
2016-12-03T06:08:39.584Z,0
2016-12-03T06:09:39.951Z,0
2016-12-03T06:10:40.278Z,0
2016-12-03T06:11:40.014Z,0
2016-12-03T06:12:40.431Z,0
2016-12-03T06:13:39.669Z,0
2016-12-03T06:14:39.629Z,0
2016-12-03T06:15:39.943Z,0
2016-12-03T06:16:40.565Z,0
2016-12-03T06:17:40.323Z,0
2016-12-03T06:18:39.995Z,0
2016-12-03T06:19:40.029Z,0
2016-12-03T06:20:40.378Z,0
2016-12-03T06:21:40.038Z,0
2016-12-03T06:22:40.342Z,0
2016-12-03T06:23:39.736Z,0
2016-12-03T06:24:39.696Z,0
2016-12-03T06:25:40.017Z,0
2016-12-03T06:26:40.783Z,0
2016-12-03T06:27:40.027Z,0
2016-12-03T06:28:40.073Z,0
2016-12-03T06:29:40.354Z,0
2016-12-03T06:30:39.787Z,0
2016-12-03T06:31:41.383Z,0
2016-12-03T06:32:40.382Z,0
2016-12-03T06:33:54.681Z,0
2016-12-03T06:34:40.389Z,0
2016-12-03T06:35:39.872Z,0
2016-12-03T06:36:40.764Z,0
2016-12-03T06:37:39.837Z,0
2016-12-03T06:38:40.420Z,0
2016-12-03T06:39:40.163Z,0
2016-12-03T06:40:40.168Z,0
2016-12-03T06:41:41.189Z,0
2016-12-03T06:42:41.710Z,0
2016-12-03T06:43:40.511Z,0
2016-12-03T06:44:41.173Z,0
2016-12-03T06:45:40.467Z,0
2016-12-03T06:46:40.102Z,0
2016-12-03T06:47:40.479Z,0
2016-12-03T06:48:39.965Z,0
2016-12-03T06:49:40.492Z,0
2016-12-03T06:50:40.244Z,0
2016-12-03T06:51:39.775Z,0
2016-12-03T06:52:40.831Z,0
2016-12-03T06:53:40.263Z,0
2016-12-03T06:54:40.271Z,0
2016-12-03T06:55:41.884Z,0
2016-12-03T06:56:40.602Z,0
2016-12-03T06:57:41.166Z,0
2016-12-03T06:58:40.613Z,0
2016-12-03T06:59:40.980Z,0
2016-12-03T07:00:40.940Z,0
2016-12-03T07:01:40.735Z,0
2016-12-03T07:02:40.064Z,0
2016-12-03T07:03:39.973Z,0
2016-12-03T07:04:40.292Z,0
2016-12-03T07:05:40.037Z,0
2016-12-03T07:06:42.309Z,0
2016-12-03T07:07:40.734Z,0
2016-12-03T07:08:41.546Z,0
2016-12-03T07:09:40.067Z,0
2016-12-03T07:10:40.019Z,0
2016-12-03T07:11:40.341Z,0
2016-12-03T07:12:40.351Z,0
2016-12-03T07:13:40.354Z,0
2016-12-03T07:14:40.726Z,0
2016-12-03T07:15:40.733Z,0
2016-12-03T07:16:40.428Z,0
2016-12-03T07:17:42.802Z,0
2016-12-03T07:18:40.707Z,0
2016-12-03T07:19:40.087Z,0
2016-12-03T07:20:41.029Z,0
2016-12-03T07:21:40.251Z,0
2016-12-03T07:22:40.155Z,0
2016-12-03T07:23:39.857Z,0
2016-12-03T07:24:41.056Z,0
2016-12-03T07:25:40.828Z,5
2016-12-03T07:26:40.684Z,5
2016-12-03T07:27:40.504Z,5
2016-12-03T07:28:40.462Z,5
2016-12-03T07:29:40.778Z,5
2016-12-03T07:30:40.578Z,5
2016-12-03T07:31:41.215Z,5
2016-12-03T07:32:40.806Z,5
2016-12-03T07:33:40.810Z,5
2016-12-03T07:34:40.244Z,5
2016-12-03T07:35:40.200Z,5
2016-12-03T07:36:41.200Z,5
2016-12-03T07:37:41.418Z,5
2016-12-03T07:38:40.584Z,5
2016-12-03T07:39:40.676Z,5
2016-12-03T07:40:40.914Z,10
2016-12-03T07:41:40.864Z,10
2016-12-03T07:42:40.927Z,10
2016-12-03T07:43:41.009Z,10
2016-12-03T07:44:40.366Z,10
2016-12-03T07:45:40.998Z,10
2016-12-03T07:46:41.564Z,10
2016-12-03T07:47:40.296Z,10
2016-12-03T07:48:41.918Z,10
2016-12-03T07:49:41.024Z,10
2016-12-03T07:50:41.479Z,10
2016-12-03T07:51:40.685Z,10
2016-12-03T07:52:40.989Z,10
2016-12-03T07:53:40.645Z,10
2016-12-03T07:54:40.960Z,15
2016-12-03T07:55:41.121Z,15
2016-12-03T07:56:41.441Z,15
2016-12-03T07:57:40.360Z,15
2016-12-03T07:58:41.311Z,15
2016-12-03T07:59:40.425Z,15
2016-12-03T08:00:40.793Z,15
2016-12-03T08:01:42.360Z,15
2016-12-03T08:02:40.706Z,15
2016-12-03T08:03:41.732Z,15
2016-12-03T08:04:41.356Z,15
2016-12-03T08:05:41.097Z,15
2016-12-03T08:06:40.790Z,15
2016-12-03T08:07:40.804Z,15
2016-12-03T08:08:40.809Z,20
2016-12-03T08:09:40.766Z,20
2016-12-03T08:10:40.971Z,20
2016-12-03T08:11:40.890Z,20
2016-12-03T08:12:42.545Z,20
2016-12-03T08:13:40.792Z,20
2016-12-03T08:14:40.538Z,20
2016-12-03T08:15:40.547Z,20
2016-12-03T08:16:40.509Z,20
2016-12-03T08:17:40.199Z,20
2016-12-03T08:18:40.677Z,20
2016-12-03T08:19:41.255Z,20
2016-12-03T08:20:40.536Z,20
2016-12-03T08:21:41.110Z,20
2016-12-03T08:22:40.862Z,20
2016-12-03T08:23:40.873Z,25
2016-12-03T08:24:40.932Z,25
2016-12-03T08:25:40.993Z,25
2016-12-03T08:26:40.892Z,35
2016-12-03T08:27:40.948Z,55
2016-12-03T08:28:40.643Z,65
2016-12-03T08:29:41.279Z,55
2016-12-03T08:30:40.979Z,45
2016-12-03T08:31:40.980Z,50
2016-12-03T08:32:42.051Z,50
2016-12-03T08:33:40.995Z,50
2016-12-03T08:34:41.555Z,50
2016-12-03T08:35:41.644Z,50
2016-12-03T08:36:40.706Z,50
2016-12-03T08:37:41.077Z,50
2016-12-03T08:38:41.663Z,50
2016-12-03T08:39:41.089Z,50
2016-12-03T08:40:41.054Z,50
2016-12-03T08:41:41.111Z,50
2016-12-03T08:42:41.377Z,50
2016-12-03T08:43:42.648Z,50
2016-12-03T08:44:40.773Z,55
2016-12-03T08:45:42.065Z,55
2016-12-03T08:46:41.048Z,55
2016-12-03T08:47:41.104Z,55
2016-12-03T08:48:40.752Z,60
2016-12-03T08:49:40.542Z,60
2016-12-03T08:50:41.128Z,65
2016-12-03T08:51:40.841Z,65
2016-12-03T08:52:40.827Z,70
2016-12-03T08:53:41.879Z,70
2016-12-03T08:54:40.849Z,70
2016-12-03T08:55:41.171Z,70
2016-12-03T08:56:42.699Z,70
2016-12-03T08:57:41.135Z,70
2016-12-03T08:58:41.555Z,70
2016-12-03T08:59:41.509Z,70
2016-12-03T09:00:40.944Z,70
2016-12-03T09:01:40.905Z,70
2016-12-03T09:02:41.792Z,70
2016-12-03T09:03:41.276Z,70
2016-12-03T09:04:41.183Z,70
2016-12-03T09:05:41.348Z,70
2016-12-03T09:06:41.566Z,70
2016-12-03T09:07:43.050Z,70
2016-12-03T09:08:41.268Z,70
2016-12-03T09:09:41.853Z,70
2016-12-03T09:10:40.659Z,70
2016-12-03T09:11:41.614Z,70
2016-12-03T09:12:41.874Z,70
2016-12-03T09:13:41.569Z,70
2016-12-03T09:14:41.575Z,70
2016-12-03T09:15:41.323Z,70
2016-12-03T09:16:42.157Z,65
2016-12-03T09:17:41.387Z,65
2016-12-03T09:18:41.663Z,65
2016-12-03T09:19:41.655Z,65
2016-12-03T09:20:41.002Z,65
2016-12-03T09:21:42.039Z,60
2016-12-03T09:22:41.017Z,60
2016-12-03T09:23:41.701Z,60
2016-12-03T09:24:41.396Z,60
2016-12-03T09:25:41.402Z,60
2016-12-03T09:26:41.408Z,60
2016-12-03T09:27:42.607Z,60
2016-12-03T09:28:42.309Z,60
2016-12-03T09:29:41.638Z,60
2016-12-03T09:30:41.179Z,60
2016-12-03T09:31:41.763Z,60
2016-12-03T09:32:41.774Z,60
2016-12-03T09:33:42.050Z,60
2016-12-03T09:34:41.421Z,60
2016-12-03T09:35:41.744Z,60
2016-12-03T09:36:41.483Z,60
2016-12-03T09:37:41.809Z,60
2016-12-03T09:38:43.402Z,65
2016-12-03T09:39:41.568Z,60
2016-12-03T09:40:42.323Z,60
2016-12-03T09:41:41.893Z,70
2016-12-03T09:42:41.796Z,105
2016-12-03T09:43:41.911Z,140
2016-12-03T09:44:41.239Z,140
2016-12-03T09:45:41.509Z,115
2016-12-03T09:46:41.355Z,115
2016-12-03T09:47:41.261Z,130
2016-12-03T09:48:41.893Z,140
2016-12-03T09:49:43.610Z,125
2016-12-03T09:50:41.646Z,110
2016-12-03T09:51:42.832Z,110
2016-12-03T09:52:41.355Z,115
2016-12-03T09:53:42.248Z,120
2016-12-03T09:54:42.318Z,125
2016-12-03T09:55:42.141Z,105
2016-12-03T09:56:41.965Z,100
2016-12-03T09:57:41.607Z,100
2016-12-03T09:58:41.662Z,80
2016-12-03T09:59:42.034Z,70
2016-12-03T10:00:41.299Z,65
2016-12-03T10:01:41.687Z,65
2016-12-03T10:02:41.327Z,65
2016-12-03T10:03:41.653Z,65
2016-12-03T10:04:41.443Z,60
2016-12-03T10:05:42.050Z,55
2016-12-03T10:06:41.101Z,50
2016-12-03T10:07:42.002Z,60
2016-12-03T10:08:41.374Z,55
2016-12-03T10:09:41.533Z,50
2016-12-03T10:10:41.397Z,40
2016-12-03T10:11:41.910Z,40
2016-12-03T10:12:41.771Z,40
2016-12-03T10:13:43.813Z,35
2016-12-03T10:14:41.520Z,35
2016-12-03T10:15:41.481Z,35
2016-12-03T10:16:42.064Z,35
2016-12-03T10:17:41.900Z,35
2016-12-03T10:18:41.462Z,35
2016-12-03T10:19:42.136Z,35
2016-12-03T10:20:42.904Z,35
2016-12-03T10:21:41.843Z,35
2016-12-03T10:22:42.396Z,35
2016-12-03T10:23:42.164Z,35
2016-12-03T10:24:41.849Z,35
2016-12-03T10:25:42.252Z,35
2016-12-03T10:26:41.873Z,35
2016-12-03T10:27:41.573Z,35
2016-12-03T10:28:41.576Z,35
2016-12-03T10:29:42.521Z,35
2016-12-03T10:30:41.863Z,35
2016-12-03T10:31:42.659Z,35
2016-12-03T10:32:41.991Z,35
2016-12-03T10:33:42.845Z,35
2016-12-03T10:34:41.885Z,35
2016-12-03T10:35:44.597Z,35
2016-12-03T10:36:42.308Z,35
2016-12-03T10:37:41.591Z,35
2016-12-03T10:38:41.596Z,35
2016-12-03T10:39:41.920Z,35
2016-12-03T10:40:42.241Z,35
2016-12-03T10:41:42.348Z,35
2016-12-03T10:42:43.464Z,35
2016-12-03T10:43:42.263Z,35
2016-12-03T10:44:43.309Z,35
2016-12-03T10:45:42.636Z,35
2016-12-03T10:46:42.633Z,35
2016-12-03T10:47:41.718Z,35
2016-12-03T10:48:42.088Z,35
2016-12-03T10:49:42.303Z,35
2016-12-03T10:50:41.687Z,35
2016-12-03T10:51:41.845Z,35
2016-12-03T10:52:41.740Z,35
2016-12-03T10:53:42.074Z,35
2016-12-03T10:54:42.130Z,35
2016-12-03T10:55:42.043Z,35
2016-12-03T10:56:42.096Z,35
2016-12-03T10:57:43.153Z,35
2016-12-03T10:58:42.426Z,35
2016-12-03T10:59:42.386Z,35
2016-12-03T11:00:42.134Z,35
2016-12-03T11:01:42.185Z,35
2016-12-03T11:02:41.825Z,35
2016-12-03T11:03:42.512Z,35
2016-12-03T11:04:42.306Z,35
2016-12-03T11:05:42.843Z,35
2016-12-03T11:06:42.156Z,35
2016-12-03T11:07:42.855Z,35
2016-12-03T11:08:41.926Z,35
2016-12-03T11:09:41.882Z,35
2016-12-03T11:10:42.204Z,35
2016-12-03T11:11:42.520Z,35
2016-12-03T11:12:42.168Z,35
2016-12-03T11:13:42.174Z,35
2016-12-03T11:14:42.858Z,35
2016-12-03T11:15:42.536Z,35
2016-12-03T11:16:42.810Z,35
2016-12-03T11:17:42.677Z,35
2016-12-03T11:18:43.018Z,35
2016-12-03T11:19:42.542Z,35
2016-12-03T11:20:42.016Z,35
2016-12-03T11:21:42.286Z,35
2016-12-03T11:22:42.288Z,35
2016-12-03T11:23:42.352Z,35
2016-12-03T11:24:41.944Z,35
2016-12-03T11:25:42.362Z,35
2016-12-03T11:26:43.113Z,35
2016-12-03T11:27:42.332Z,35
2016-12-03T11:28:43.125Z,35
2016-12-03T11:29:42.606Z,35
2016-12-03T11:30:42.982Z,35
2016-12-03T11:31:42.359Z,35
2016-12-03T11:32:42.944Z,35
2016-12-03T11:33:43.053Z,35
2016-12-03T11:34:42.438Z,35
2016-12-03T11:35:42.125Z,35
2016-12-03T11:36:42.452Z,35
2016-12-03T11:37:43.833Z,35
2016-12-03T11:38:42.419Z,35
2016-12-03T11:39:43.521Z,35
2016-12-03T11:40:42.525Z,35
2016-12-03T11:41:42.737Z,35
2016-12-03T11:42:43.024Z,35
2016-12-03T11:43:42.409Z,35
2016-12-03T11:44:42.505Z,35
2016-12-03T11:45:42.779Z,35
2016-12-03T11:46:42.472Z,35
2016-12-03T11:47:42.742Z,35
2016-12-03T11:48:42.755Z,35
2016-12-03T11:49:42.765Z,35
2016-12-03T11:50:44.291Z,35
2016-12-03T11:51:42.468Z,35
2016-12-03T11:52:43.209Z,35
2016-12-03T11:53:42.792Z,35
2016-12-03T11:54:42.227Z,35
2016-12-03T11:55:42.568Z,35
2016-12-03T11:56:42.239Z,35
2016-12-03T11:57:42.869Z,35
2016-12-03T11:58:42.613Z,35
2016-12-03T11:59:43.203Z,35
2016-12-03T12:00:43.844Z,35
2016-12-03T12:01:42.639Z,35
2016-12-03T12:02:42.548Z,35
2016-12-03T12:03:42.243Z,35
2016-12-03T12:04:43.187Z,35
2016-12-03T12:05:42.984Z,35
2016-12-03T12:06:42.314Z,35
2016-12-03T12:07:42.899Z,35
2016-12-03T12:08:42.383Z,35
2016-12-03T12:09:42.963Z,35
2016-12-03T12:10:43.508Z,35
2016-12-03T12:11:43.339Z,35
2016-12-03T12:12:42.935Z,35
2016-12-03T12:13:42.728Z,35
2016-12-03T12:14:43.036Z,35
2016-12-03T12:15:42.955Z,35
2016-12-03T12:16:43.018Z,35
2016-12-03T12:17:42.397Z,35
2016-12-03T12:18:43.030Z,35
2016-12-03T12:19:42.990Z,35
2016-12-03T12:20:42.730Z,35
2016-12-03T12:21:43.687Z,30
2016-12-03T12:22:42.797Z,30
2016-12-03T12:23:43.457Z,30
2016-12-03T12:24:43.123Z,30
2016-12-03T12:25:42.920Z,30
2016-12-03T12:26:42.780Z,30
2016-12-03T12:27:42.735Z,30
2016-12-03T12:28:43.057Z,30
2016-12-03T12:29:42.749Z,30
2016-12-03T12:30:42.500Z,30
2016-12-03T12:31:43.131Z,30
2016-12-03T12:32:44.416Z,30
2016-12-03T12:33:43.456Z,30
2016-12-03T12:34:43.794Z,30
2016-12-03T12:35:42.534Z,30
2016-12-03T12:36:43.468Z,30
2016-12-03T12:37:42.549Z,30
2016-12-03T12:38:43.541Z,30
2016-12-03T12:39:42.927Z,30
2016-12-03T12:40:43.206Z,30
2016-12-03T12:41:43.519Z,30
2016-12-03T12:42:43.574Z,30
2016-12-03T12:43:42.864Z,30
2016-12-03T12:44:43.535Z,30
2016-12-03T12:45:44.325Z,30
2016-12-03T12:46:43.243Z,30
2016-12-03T12:47:43.999Z,30
2016-12-03T12:48:43.260Z,30
2016-12-03T12:49:42.951Z,30
2016-12-03T12:50:43.317Z,30
2016-12-03T12:51:42.964Z,30
2016-12-03T12:52:42.924Z,30
2016-12-03T12:53:43.911Z,30
2016-12-03T12:54:42.939Z,30
2016-12-03T12:55:42.998Z,30
2016-12-03T12:56:44.886Z,30
2016-12-03T12:57:42.697Z,30
2016-12-03T12:58:44.218Z,30
2016-12-03T12:59:43.468Z,30
2016-12-03T13:00:43.026Z,30
2016-12-03T13:01:42.676Z,30
2016-12-03T13:02:43.364Z,30
2016-12-03T13:03:43.009Z,30
2016-12-03T13:04:42.698Z,30
2016-12-03T13:05:43.429Z,30
2016-12-03T13:06:43.754Z,30
2016-12-03T13:07:43.157Z,30
2016-12-03T13:08:43.408Z,30
2016-12-03T13:09:43.146Z,30
2016-12-03T13:10:43.057Z,30
2016-12-03T13:11:42.852Z,30
2016-12-03T13:12:43.744Z,30
2016-12-03T13:13:43.442Z,30
2016-12-03T13:14:43.089Z,30
2016-12-03T13:15:43.148Z,30
2016-12-03T13:16:44.053Z,30
2016-12-03T13:17:43.787Z,30
2016-12-03T13:18:43.791Z,30
2016-12-03T13:19:43.486Z,30
2016-12-03T13:20:42.868Z,30
2016-12-03T13:21:43.286Z,30
2016-12-03T13:22:42.932Z,30
2016-12-03T13:23:43.463Z,30
2016-12-03T13:24:42.896Z,30
2016-12-03T13:25:43.275Z,30
2016-12-03T13:26:43.539Z,30
2016-12-03T13:27:44.216Z,30
2016-12-03T13:28:42.564Z,30
2016-12-03T13:29:43.969Z,30
2016-12-03T13:30:43.606Z,25
2016-12-03T13:31:43.243Z,25
2016-12-03T13:32:42.961Z,25
2016-12-03T13:33:43.275Z,25
2016-12-03T13:34:43.280Z,25
2016-12-03T13:35:43.607Z,25
2016-12-03T13:36:43.298Z,25
2016-12-03T13:37:43.567Z,25
2016-12-03T13:38:45.164Z,25
2016-12-03T13:39:43.736Z,25
2016-12-03T13:40:44.584Z,25
2016-12-03T13:41:43.409Z,25
2016-12-03T13:42:43.653Z,25
2016-12-03T13:43:42.727Z,25
2016-12-03T13:44:44.283Z,25
2016-12-03T13:45:43.414Z,25
2016-12-03T13:46:43.322Z,25
2016-12-03T13:47:43.065Z,25
2016-12-03T13:48:43.074Z,25
2016-12-03T13:49:43.954Z,25
2016-12-03T13:50:43.090Z,25
2016-12-03T13:51:45.209Z,25
2016-12-03T13:52:43.050Z,25
2016-12-03T13:53:43.115Z,25
2016-12-03T13:54:43.481Z,25
2016-12-03T13:55:43.174Z,25
2016-12-03T13:56:44.062Z,20
2016-12-03T13:57:43.460Z,20
2016-12-03T13:58:43.721Z,20
2016-12-03T13:59:43.157Z,20
2016-12-03T14:00:43.927Z,20
2016-12-03T14:01:43.558Z,20
2016-12-03T14:02:43.435Z,20
2016-12-03T14:03:43.128Z,20
2016-12-03T14:04:43.916Z,20
2016-12-03T14:05:43.769Z,20
2016-12-03T14:06:43.852Z,20
2016-12-03T14:07:43.572Z,20
2016-12-03T14:08:43.843Z,20
2016-12-03T14:09:43.544Z,20
2016-12-03T14:10:43.909Z,20
2016-12-03T14:11:44.600Z,20
2016-12-03T14:12:43.198Z,20
2016-12-03T14:13:43.832Z,20
2016-12-03T14:14:43.821Z,20
2016-12-03T14:15:43.943Z,20
2016-12-03T14:16:44.213Z,20
2016-12-03T14:17:43.546Z,15
2016-12-03T14:18:43.926Z,15
2016-12-03T14:19:43.298Z,15
2016-12-03T14:20:43.885Z,15
2016-12-03T14:21:44.204Z,15
2016-12-03T14:22:45.024Z,15
2016-12-03T14:23:43.643Z,15
2016-12-03T14:24:44.011Z,15
2016-12-03T14:25:43.924Z,15
2016-12-03T14:26:43.717Z,15
2016-12-03T14:27:43.672Z,15
2016-12-03T14:28:43.419Z,15
2016-12-03T14:29:43.062Z,15
2016-12-03T14:30:43.681Z,15
2016-12-03T14:31:44.342Z,15